Etown, Pennsylvania
Current Conditions -  °F | °C
As of 2:56 PM on Friday 28 Nov 2014 (Local Time) from KMDT Reporting Station
Broken Clouds Broken Clouds  
Wind Chill: 28°   Ceiling: 5000
Heat Index: 35°   Visibility: 10mi
Dew Point: 16°   Wind: 9mph
Humidity: 46%   Direction: 300°WNW
Pressure: 30.23"   Gusts: NA
Location:  40.1674°N, 76.6045°W
Report Text: KMDT 281956Z 30008KT 10SM BKN050 BKN150 02/M09 A3023 RMK AO2 SLP241 T00171089
Loading
Personal Weather Stations






























Interactive Weather Map New forecast layout! Learn more

10-Day Weather Forecast

Advertisements
Track Severe Weather on mobile